sensor_id;sensor_type;location;lat;lon;timestamp;temperature;humidity
20070;DHT22;10195;50.868;4.382;2024-02-26T00:00:31;7.50;99.90
20070;DHT22;10195;50.868;4.382;2024-02-26T00:02:57;7.50;99.90
20070;DHT22;10195;50.868;4.382;2024-02-26T00:05:23;7.60;99.90
20070;DHT22;10195;50.868;4.382;2024-02-26T00:07:49;7.50;99.90
20070;DHT22;10195;50.868;4.382;2024-02-26T00:10:14;7.50;99.90
20070;DHT22;10195;50.868;4.382;2024-02-26T00:12:40;7.40;99.90
20070;DHT22;10195;50.868;4.382;2024-02-26T00:15:09;7.40;99.90
20070;DHT22;10195;50.868;4.382;2024-02-26T00:17:35;7.40;99.90
20070;DHT22;10195;50.868;4.382;2024-02-26T00:20:03;7.40;99.90
20070;DHT22;10195;50.868;4.382;2024-02-26T00:22:31;7.40;99.90
20070;DHT22;10195;50.868;4.382;2024-02-26T00:24:56;7.40;99.90
20070;DHT22;10195;50.868;4.382;2024-02-26T00:27:22;7.40;99.90
20070;DHT22;10195;50.868;4.382;2024-02-26T00:29:48;7.30;99.90
20070;DHT22;10195;50.868;4.382;2024-02-26T00:32:14;7.20;99.90
20070;DHT22;10195;50.868;4.382;2024-02-26T00:34:39;7.20;99.90
20070;DHT22;10195;50.868;4.382;2024-02-26T00:37:05;7.20;99.90
20070;DHT22;10195;50.868;4.382;2024-02-26T00:39:31;7.10;99.90
20070;DHT22;10195;50.868;4.382;2024-02-26T00:41:56;7.20;99.90
20070;DHT22;10195;50.868;4.382;2024-02-26T00:44:22;7.20;99.90
20070;DHT22;10195;50.868;4.382;2024-02-26T00:46:48;7.20;99.90
20070;DHT22;10195;50.868;4.382;2024-02-26T00:49:13;7.20;99.90
20070;DHT22;10195;50.868;4.382;2024-02-26T00:51:39;7.30;99.90
20070;DHT22;10195;50.868;4.382;2024-02-26T00:54:04;7.40;99.90
20070;DHT22;10195;50.868;4.382;2024-02-26T00:56:30;7.40;99.90
20070;DHT22;10195;50.868;4.382;2024-02-26T00:58:56;7.30;99.90
20070;DHT22;10195;50.868;4.382;2024-02-26T01:01:21;7.30;99.90
20070;DHT22;10195;50.868;4.382;2024-02-26T01:03:47;7.20;99.90
20070;DHT22;10195;50.868;4.382;2024-02-26T01:06:13;7.20;99.90
20070;DHT22;10195;50.868;4.382;2024-02-26T01:08:38;7.10;99.90
20070;DHT22;10195;50.868;4.382;2024-02-26T01:11:04;7.10;99.90
20070;DHT22;10195;50.868;4.382;2024-02-26T01:13:30;7.10;99.90
20070;DHT22;10195;50.868;4.382;2024-02-26T01:15:56;7.20;99.90
20070;DHT22;10195;50.868;4.382;2024-02-26T01:18:21;7.20;99.90
20070;DHT22;10195;50.868;4.382;2024-02-26T01:20:48;7.20;99.90
20070;DHT22;10195;50.868;4.382;2024-02-26T01:23:14;7.10;99.90
20070;DHT22;10195;50.868;4.382;2024-02-26T01:25:39;7.10;99.90
20070;DHT22;10195;50.868;4.382;2024-02-26T01:28:05;7.10;99.90
20070;DHT22;10195;50.868;4.382;2024-02-26T01:30:31;7.00;99.90
20070;DHT22;10195;50.868;4.382;2024-02-26T01:32:57;7.00;99.90
20070;DHT22;10195;50.868;4.382;2024-02-26T01:35:23;7.00;99.90
20070;DHT22;10195;50.868;4.382;2024-02-26T01:37:48;6.90;99.90
20070;DHT22;10195;50.868;4.382;2024-02-26T01:40:14;7.00;99.90
20070;DHT22;10195;50.868;4.382;2024-02-26T01:42:45;6.90;99.90
20070;DHT22;10195;50.868;4.382;2024-02-26T01:45:14;7.10;99.90
20070;DHT22;10195;50.868;4.382;2024-02-26T01:47:41;6.90;99.90
20070;DHT22;10195;50.868;4.382;2024-02-26T01:50:08;6.90;99.90
20070;DHT22;10195;50.868;4.382;2024-02-26T01:52:34;7.00;99.90
20070;DHT22;10195;50.868;4.382;2024-02-26T01:55:00;6.90;99.90
20070;DHT22;10195;50.868;4.382;2024-02-26T01:57:27;6.80;99.90
20070;DHT22;10195;50.868;4.382;2024-02-26T01:59:54;6.80;99.90
20070;DHT22;10195;50.868;4.382;2024-02-26T02:02:19;6.80;99.90
20070;DHT22;10195;50.868;4.382;2024-02-26T02:04:45;6.80;99.90
20070;DHT22;10195;50.868;4.382;2024-02-26T02:07:11;6.80;99.90
20070;DHT22;10195;50.868;4.382;2024-02-26T02:09:38;6.90;99.90
20070;DHT22;10195;50.868;4.382;2024-02-26T02:12:04;6.90;99.90
20070;DHT22;10195;50.868;4.382;2024-02-26T02:14:31;6.90;99.90
20070;DHT22;10195;50.868;4.382;2024-02-26T02:16:56;6.80;99.90
20070;DHT22;10195;50.868;4.382;2024-02-26T02:19:22;6.80;99.90
20070;DHT22;10195;50.868;4.382;2024-02-26T02:21:47;6.80;99.90
20070;DHT22;10195;50.868;4.382;2024-02-26T02:24:13;6.80;99.90
20070;DHT22;10195;50.868;4.382;2024-02-26T02:26:39;6.80;99.90
20070;DHT22;10195;50.868;4.382;2024-02-26T02:29:06;6.80;99.90
20070;DHT22;10195;50.868;4.382;2024-02-26T02:31:32;6.80;99.90
20070;DHT22;10195;50.868;4.382;2024-02-26T02:33:58;6.70;99.90
20070;DHT22;10195;50.868;4.382;2024-02-26T02:36:23;6.60;99.90
20070;DHT22;10195;50.868;4.382;2024-02-26T02:38:51;6.60;99.90
20070;DHT22;10195;50.868;4.382;2024-02-26T02:41:17;6.60;99.90
20070;DHT22;10195;50.868;4.382;2024-02-26T02:43:43;6.60;99.90
20070;DHT22;10195;50.868;4.382;2024-02-26T02:46:09;6.70;99.90
20070;DHT22;10195;50.868;4.382;2024-02-26T02:48:36;6.60;99.90
20070;DHT22;10195;50.868;4.382;2024-02-26T02:51:02;6.70;99.90
20070;DHT22;10195;50.868;4.382;2024-02-26T02:53:27;6.60;99.90
20070;DHT22;10195;50.868;4.382;2024-02-26T02:55:53;6.60;99.90
20070;DHT22;10195;50.868;4.382;2024-02-26T02:58:19;6.60;99.90
20070;DHT22;10195;50.868;4.382;2024-02-26T03:00:44;6.60;99.90
20070;DHT22;10195;50.868;4.382;2024-02-26T03:03:10;6.60;99.90
20070;DHT22;10195;50.868;4.382;2024-02-26T03:05:36;6.60;99.90
20070;DHT22;10195;50.868;4.382;2024-02-26T03:08:01;6.70;99.90
20070;DHT22;10195;50.868;4.382;2024-02-26T03:10:27;6.60;99.90
20070;DHT22;10195;50.868;4.382;2024-02-26T03:12:53;6.70;99.90
20070;DHT22;10195;50.868;4.382;2024-02-26T03:15:19;6.70;99.90
20070;DHT22;10195;50.868;4.382;2024-02-26T03:17:45;6.70;99.90
20070;DHT22;10195;50.868;4.382;2024-02-26T03:20:10;6.60;99.90
20070;DHT22;10195;50.868;4.382;2024-02-26T03:22:38;6.60;99.90
20070;DHT22;10195;50.868;4.382;2024-02-26T03:25:05;6.60;99.90
20070;DHT22;10195;50.868;4.382;2024-02-26T03:27:31;6.60;99.90
20070;DHT22;10195;50.868;4.382;2024-02-26T03:29:57;6.60;99.90
20070;DHT22;10195;50.868;4.382;2024-02-26T03:32:22;6.60;99.90
20070;DHT22;10195;50.868;4.382;2024-02-26T03:34:48;6.60;99.90
20070;DHT22;10195;50.868;4.382;2024-02-26T03:37:14;6.60;99.90
20070;DHT22;10195;50.868;4.382;2024-02-26T03:39:40;6.50;99.90
20070;DHT22;10195;50.868;4.382;2024-02-26T03:42:06;6.50;99.90
20070;DHT22;10195;50.868;4.382;2024-02-26T03:44:32;6.60;99.90
20070;DHT22;10195;50.868;4.382;2024-02-26T03:46:57;6.60;99.90
20070;DHT22;10195;50.868;4.382;2024-02-26T03:49:23;6.60;99.90
20070;DHT22;10195;50.868;4.382;2024-02-26T03:51:49;6.60;99.90
20070;DHT22;10195;50.868;4.382;2024-02-26T03:54:14;6.60;99.90
20070;DHT22;10195;50.868;4.382;2024-02-26T03:56:40;6.60;99.90
20070;DHT22;10195;50.868;4.382;2024-02-26T03:59:06;6.60;99.90
20070;DHT22;10195;50.868;4.382;2024-02-26T04:01:31;6.70;99.90
20070;DHT22;10195;50.868;4.382;2024-02-26T04:03:57;6.60;99.90
20070;DHT22;10195;50.868;4.382;2024-02-26T04:06:23;6.60;99.90
20070;DHT22;10195;50.868;4.382;2024-02-26T04:08:48;6.60;99.90
20070;DHT22;10195;50.868;4.382;2024-02-26T04:11:14;6.60;99.90
20070;DHT22;10195;50.868;4.382;2024-02-26T04:13:43;6.50;99.90
20070;DHT22;10195;50.868;4.382;2024-02-26T04:16:11;6.50;99.90
20070;DHT22;10195;50.868;4.382;2024-02-26T04:18:37;6.40;99.90
20070;DHT22;10195;50.868;4.382;2024-02-26T04:21:04;6.40;99.90
20070;DHT22;10195;50.868;4.382;2024-02-26T04:23:30;6.50;99.90
20070;DHT22;10195;50.868;4.382;2024-02-26T04:25:56;6.50;99.90
20070;DHT22;10195;50.868;4.382;2024-02-26T04:28:22;6.50;99.90
20070;DHT22;10195;50.868;4.382;2024-02-26T04:30:48;6.50;99.90
20070;DHT22;10195;50.868;4.382;2024-02-26T04:33:14;6.50;99.90
20070;DHT22;10195;50.868;4.382;2024-02-26T04:35:39;6.50;99.90
20070;DHT22;10195;50.868;4.382;2024-02-26T04:38:05;6.50;99.90
20070;DHT22;10195;50.868;4.382;2024-02-26T04:40:31;6.50;99.90
20070;DHT22;10195;50.868;4.382;2024-02-26T04:42:56;6.50;99.90
20070;DHT22;10195;50.868;4.382;2024-02-26T04:45:24;6.40;99.90
20070;DHT22;10195;50.868;4.382;2024-02-26T04:47:49;6.40;99.90
20070;DHT22;10195;50.868;4.382;2024-02-26T04:50:15;6.50;99.90
20070;DHT22;10195;50.868;4.382;2024-02-26T04:52:41;6.50;99.90
20070;DHT22;10195;50.868;4.382;2024-02-26T04:55:07;6.40;99.90
20070;DHT22;10195;50.868;4.382;2024-02-26T04:57:32;6.40;99.90
20070;DHT22;10195;50.868;4.382;2024-02-26T04:59:58;6.40;99.90
20070;DHT22;10195;50.868;4.382;2024-02-26T05:02:24;6.40;99.90
20070;DHT22;10195;50.868;4.382;2024-02-26T05:04:50;6.30;99.90
20070;DHT22;10195;50.868;4.382;2024-02-26T05:07:15;6.30;99.90
20070;DHT22;10195;50.868;4.382;2024-02-26T05:09:43;6.30;99.90
20070;DHT22;10195;50.868;4.382;2024-02-26T05:12:09;6.30;99.90
20070;DHT22;10195;50.868;4.382;2024-02-26T05:14:35;6.30;99.90
20070;DHT22;10195;50.868;4.382;2024-02-26T05:17:00;6.30;99.90
20070;DHT22;10195;50.868;4.382;2024-02-26T05:19:26;6.30;99.90
20070;DHT22;10195;50.868;4.382;2024-02-26T05:21:52;6.30;99.90
20070;DHT22;10195;50.868;4.382;2024-02-26T05:24:18;6.30;99.90
20070;DHT22;10195;50.868;4.382;2024-02-26T05:26:47;6.30;99.90
20070;DHT22;10195;50.868;4.382;2024-02-26T05:29:13;6.40;99.90
20070;DHT22;10195;50.868;4.382;2024-02-26T05:31:39;6.30;99.90
20070;DHT22;10195;50.868;4.382;2024-02-26T05:34:05;6.40;99.90
20070;DHT22;10195;50.868;4.382;2024-02-26T05:36:31;6.30;99.90
20070;DHT22;10195;50.868;4.382;2024-02-26T05:38:59;6.40;99.90
20070;DHT22;10195;50.868;4.382;2024-02-26T05:41:25;6.30;99.90
20070;DHT22;10195;50.868;4.382;2024-02-26T05:43:52;6.40;99.90
20070;DHT22;10195;50.868;4.382;2024-02-26T05:46:19;6.40;99.90
20070;DHT22;10195;50.868;4.382;2024-02-26T05:48:49;6.40;99.90
20070;DHT22;10195;50.868;4.382;2024-02-26T05:51:15;6.40;99.90
20070;DHT22;10195;50.868;4.382;2024-02-26T05:53:41;6.40;99.90
20070;DHT22;10195;50.868;4.382;2024-02-26T05:56:07;6.30;99.90
20070;DHT22;10195;50.868;4.382;2024-02-26T05:58:33;6.30;99.90
20070;DHT22;10195;50.868;4.382;2024-02-26T06:00:58;6.30;99.90
20070;DHT22;10195;50.868;4.382;2024-02-26T06:03:26;6.30;99.90
20070;DHT22;10195;50.868;4.382;2024-02-26T06:05:51;6.40;99.90
20070;DHT22;10195;50.868;4.382;2024-02-26T06:08:17;6.30;99.90
20070;DHT22;10195;50.868;4.382;2024-02-26T06:10:43;6.40;99.90
20070;DHT22;10195;50.868;4.382;2024-02-26T06:13:08;6.40;99.90
20070;DHT22;10195;50.868;4.382;2024-02-26T06:15:34;6.40;99.90
20070;DHT22;10195;50.868;4.382;2024-02-26T06:18:00;6.40;99.90
20070;DHT22;10195;50.868;4.382;2024-02-26T06:20:25;6.40;99.90
20070;DHT22;10195;50.868;4.382;2024-02-26T06:22:51;6.40;99.90
20070;DHT22;10195;50.868;4.382;2024-02-26T06:25:17;6.40;99.90
20070;DHT22;10195;50.868;4.382;2024-02-26T06:27:42;6.40;99.90
20070;DHT22;10195;50.868;4.382;2024-02-26T06:30:09;6.40;99.90
20070;DHT22;10195;50.868;4.382;2024-02-26T06:32:37;6.40;99.90
20070;DHT22;10195;50.868;4.382;2024-02-26T06:35:02;6.40;99.90
20070;DHT22;10195;50.868;4.382;2024-02-26T06:37:32;6.40;99.90
20070;DHT22;10195;50.868;4.382;2024-02-26T06:40:02;6.50;99.90
20070;DHT22;10195;50.868;4.382;2024-02-26T06:42:32;6.30;99.90
20070;DHT22;10195;50.868;4.382;2024-02-26T06:44:57;6.40;99.90
20070;DHT22;10195;50.868;4.382;2024-02-26T06:47:23;6.30;99.90
20070;DHT22;10195;50.868;4.382;2024-02-26T06:49:49;6.30;99.90
20070;DHT22;10195;50.868;4.382;2024-02-26T06:52:14;6.30;99.90
20070;DHT22;10195;50.868;4.382;2024-02-26T06:54:40;6.30;99.90
20070;DHT22;10195;50.868;4.382;2024-02-26T06:57:07;6.30;99.90
20070;DHT22;10195;50.868;4.382;2024-02-26T06:59:32;6.40;99.90
20070;DHT22;10195;50.868;4.382;2024-02-26T07:01:58;6.30;99.90
20070;DHT22;10195;50.868;4.382;2024-02-26T07:04:23;6.30;99.90
20070;DHT22;10195;50.868;4.382;2024-02-26T07:06:49;6.30;99.90
20070;DHT22;10195;50.868;4.382;2024-02-26T07:09:15;6.30;99.90
20070;DHT22;10195;50.868;4.382;2024-02-26T07:11:41;6.20;99.90
20070;DHT22;10195;50.868;4.382;2024-02-26T07:14:10;6.30;99.90
20070;DHT22;10195;50.868;4.382;2024-02-26T07:16:36;6.30;99.90
20070;DHT22;10195;50.868;4.382;2024-02-26T07:19:02;6.30;99.90
20070;DHT22;10195;50.868;4.382;2024-02-26T07:21:28;6.30;99.90
20070;DHT22;10195;50.868;4.382;2024-02-26T07:23:54;6.30;99.90
20070;DHT22;10195;50.868;4.382;2024-02-26T07:26:19;6.30;99.90
20070;DHT22;10195;50.868;4.382;2024-02-26T07:28:46;6.30;99.90
20070;DHT22;10195;50.868;4.382;2024-02-26T07:31:12;6.30;99.90
20070;DHT22;10195;50.868;4.382;2024-02-26T07:33:38;6.30;99.90
20070;DHT22;10195;50.868;4.382;2024-02-26T07:36:04;6.30;99.90
20070;DHT22;10195;50.868;4.382;2024-02-26T07:38:29;6.20;99.90
20070;DHT22;10195;50.868;4.382;2024-02-26T07:40:55;6.30;99.90
20070;DHT22;10195;50.868;4.382;2024-02-26T07:43:22;6.30;99.90
20070;DHT22;10195;50.868;4.382;2024-02-26T07:45:48;6.30;99.90
20070;DHT22;10195;50.868;4.382;2024-02-26T07:48:13;6.30;99.90
20070;DHT22;10195;50.868;4.382;2024-02-26T07:50:39;6.20;99.90
20070;DHT22;10195;50.868;4.382;2024-02-26T07:53:06;6.20;99.90
20070;DHT22;10195;50.868;4.382;2024-02-26T07:55:31;6.20;99.90
20070;DHT22;10195;50.868;4.382;2024-02-26T07:57:57;6.30;99.90
20070;DHT22;10195;50.868;4.382;2024-02-26T08:00:23;6.30;99.90
20070;DHT22;10195;50.868;4.382;2024-02-26T08:02:48;6.30;99.90
20070;DHT22;10195;50.868;4.382;2024-02-26T08:05:14;6.20;99.90
20070;DHT22;10195;50.868;4.382;2024-02-26T08:07:39;6.20;99.90
20070;DHT22;10195;50.868;4.382;2024-02-26T08:10:06;6.20;99.90
20070;DHT22;10195;50.868;4.382;2024-02-26T08:12:32;6.30;99.90
20070;DHT22;10195;50.868;4.382;2024-02-26T08:14:58;6.30;99.90
20070;DHT22;10195;50.868;4.382;2024-02-26T08:17:23;6.30;99.90
20070;DHT22;10195;50.868;4.382;2024-02-26T08:19:49;6.20;99.90
20070;DHT22;10195;50.868;4.382;2024-02-26T08:22:15;6.20;99.90
20070;DHT22;10195;50.868;4.382;2024-02-26T08:24:43;6.20;99.90
20070;DHT22;10195;50.868;4.382;2024-02-26T08:27:09;6.20;99.90
20070;DHT22;10195;50.868;4.382;2024-02-26T08:29:35;6.20;99.90
20070;DHT22;10195;50.868;4.382;2024-02-26T08:32:01;6.20;99.90
20070;DHT22;10195;50.868;4.382;2024-02-26T08:34:26;6.20;99.90
20070;DHT22;10195;50.868;4.382;2024-02-26T08:36:52;6.30;99.90
20070;DHT22;10195;50.868;4.382;2024-02-26T08:39:18;6.20;99.90
20070;DHT22;10195;50.868;4.382;2024-02-26T08:41:44;6.20;99.90
20070;DHT22;10195;50.868;4.382;2024-02-26T08:44:10;6.20;99.90
20070;DHT22;10195;50.868;4.382;2024-02-26T08:46:36;6.20;99.90
20070;DHT22;10195;50.868;4.382;2024-02-26T08:49:02;6.20;99.90
20070;DHT22;10195;50.868;4.382;2024-02-26T08:51:28;6.20;99.90
20070;DHT22;10195;50.868;4.382;2024-02-26T08:53:53;6.20;99.90
20070;DHT22;10195;50.868;4.382;2024-02-26T08:56:20;6.20;99.90
20070;DHT22;10195;50.868;4.382;2024-02-26T08:58:47;6.20;99.90
20070;DHT22;10195;50.868;4.382;2024-02-26T09:01:15;6.20;99.90
20070;DHT22;10195;50.868;4.382;2024-02-26T09:03:40;6.20;99.90
20070;DHT22;10195;50.868;4.382;2024-02-26T09:06:06;6.20;99.90
20070;DHT22;10195;50.868;4.382;2024-02-26T09:08:32;6.20;99.90
20070;DHT22;10195;50.868;4.382;2024-02-26T09:10:58;6.20;99.90
20070;DHT22;10195;50.868;4.382;2024-02-26T09:13:24;6.20;99.90
20070;DHT22;10195;50.868;4.382;2024-02-26T09:15:50;6.20;99.90
20070;DHT22;10195;50.868;4.382;2024-02-26T09:18:15;6.20;99.90
20070;DHT22;10195;50.868;4.382;2024-02-26T09:20:43;6.20;99.90
20070;DHT22;10195;50.868;4.382;2024-02-26T09:23:09;6.20;99.90
20070;DHT22;10195;50.868;4.382;2024-02-26T09:25:35;6.20;99.90
20070;DHT22;10195;50.868;4.382;2024-02-26T09:28:01;6.20;99.90
20070;DHT22;10195;50.868;4.382;2024-02-26T09:30:26;6.30;99.90
20070;DHT22;10195;50.868;4.382;2024-02-26T09:32:52;6.30;99.90
20070;DHT22;10195;50.868;4.382;2024-02-26T09:35:18;6.30;99.90
20070;DHT22;10195;50.868;4.382;2024-02-26T09:37:44;6.20;99.90
20070;DHT22;10195;50.868;4.382;2024-02-26T09:40:10;6.20;99.90
20070;DHT22;10195;50.868;4.382;2024-02-26T09:42:45;6.20;99.90
20070;DHT22;10195;50.868;4.382;2024-02-26T09:45:18;6.10;99.90
20070;DHT22;10195;50.868;4.382;2024-02-26T09:47:44;6.10;99.90
20070;DHT22;10195;50.868;4.382;2024-02-26T09:50:11;6.10;99.90
20070;DHT22;10195;50.868;4.382;2024-02-26T09:52:39;6.00;99.90
20070;DHT22;10195;50.868;4.382;2024-02-26T09:55:08;6.00;99.90
20070;DHT22;10195;50.868;4.382;2024-02-26T09:57:36;5.90;99.90
20070;DHT22;10195;50.868;4.382;2024-02-26T10:00:03;5.90;99.90
20070;DHT22;10195;50.868;4.382;2024-02-26T10:02:33;6.00;99.90
20070;DHT22;10195;50.868;4.382;2024-02-26T10:05:02;6.00;99.90
20070;DHT22;10195;50.868;4.382;2024-02-26T10:07:30;6.00;99.90
20070;DHT22;10195;50.868;4.382;2024-02-26T10:09:57;6.00;99.90
20070;DHT22;10195;50.868;4.382;2024-02-26T10:12:23;6.10;99.90
20070;DHT22;10195;50.868;4.382;2024-02-26T10:14:51;6.10;99.90
20070;DHT22;10195;50.868;4.382;2024-02-26T10:17:17;6.10;99.90
20070;DHT22;10195;50.868;4.382;2024-02-26T10:19:44;6.00;99.90
20070;DHT22;10195;50.868;4.382;2024-02-26T10:22:10;6.00;99.90
20070;DHT22;10195;50.868;4.382;2024-02-26T10:24:36;6.00;99.90
20070;DHT22;10195;50.868;4.382;2024-02-26T10:27:02;6.00;99.90
20070;DHT22;10195;50.868;4.382;2024-02-26T10:29:28;6.00;99.90
20070;DHT22;10195;50.868;4.382;2024-02-26T10:31:53;6.00;99.90
20070;DHT22;10195;50.868;4.382;2024-02-26T10:34:20;6.00;99.90
20070;DHT22;10195;50.868;4.382;2024-02-26T10:36:45;6.00;99.90
20070;DHT22;10195;50.868;4.382;2024-02-26T10:39:14;6.00;99.90
20070;DHT22;10195;50.868;4.382;2024-02-26T10:41:41;6.00;99.90
20070;DHT22;10195;50.868;4.382;2024-02-26T10:44:09;6.00;99.90
20070;DHT22;10195;50.868;4.382;2024-02-26T10:46:37;6.00;99.90
20070;DHT22;10195;50.868;4.382;2024-02-26T10:49:02;6.00;99.90
20070;DHT22;10195;50.868;4.382;2024-02-26T10:51:30;6.00;99.90
20070;DHT22;10195;50.868;4.382;2024-02-26T10:53:57;6.00;99.90
20070;DHT22;10195;50.868;4.382;2024-02-26T10:56:27;6.00;99.90
20070;DHT22;10195;50.868;4.382;2024-02-26T10:58:54;6.00;99.90
20070;DHT22;10195;50.868;4.382;2024-02-26T11:01:21;6.00;99.90
20070;DHT22;10195;50.868;4.382;2024-02-26T11:03:54;6.00;99.90
20070;DHT22;10195;50.868;4.382;2024-02-26T11:06:21;5.90;99.90
20070;DHT22;10195;50.868;4.382;2024-02-26T11:08:50;5.90;99.90
20070;DHT22;10195;50.868;4.382;2024-02-26T11:11:20;5.90;99.90
20070;DHT22;10195;50.868;4.382;2024-02-26T11:13:48;5.80;99.90
20070;DHT22;10195;50.868;4.382;2024-02-26T11:16:21;5.90;99.90
20070;DHT22;10195;50.868;4.382;2024-02-26T11:18:48;5.90;99.90
20070;DHT22;10195;50.868;4.382;2024-02-26T11:21:17;5.90;99.90
20070;DHT22;10195;50.868;4.382;2024-02-26T11:23:53;5.80;99.90
20070;DHT22;10195;50.868;4.382;2024-02-26T11:26:20;5.70;99.90
20070;DHT22;10195;50.868;4.382;2024-02-26T11:28:47;5.70;99.90
20070;DHT22;10195;50.868;4.382;2024-02-26T11:31:13;5.60;99.90
20070;DHT22;10195;50.868;4.382;2024-02-26T11:33:39;5.60;99.90
20070;DHT22;10195;50.868;4.382;2024-02-26T11:36:12;5.60;99.90
20070;DHT22;10195;50.868;4.382;2024-02-26T11:38:39;5.60;99.90
20070;DHT22;10195;50.868;4.382;2024-02-26T11:41:06;5.60;99.90
20070;DHT22;10195;50.868;4.382;2024-02-26T11:43:52;5.60;99.90
20070;DHT22;10195;50.868;4.382;2024-02-26T11:48:53;5.50;99.90
20070;DHT22;10195;50.868;4.382;2024-02-26T11:51:25;5.60;99.90
20070;DHT22;10195;50.868;4.382;2024-02-26T11:53:51;5.60;99.90
20070;DHT22;10195;50.868;4.382;2024-02-26T11:58:42;5.70;99.90
20070;DHT22;10195;50.868;4.382;2024-02-26T12:01:40;5.60;99.90
20070;DHT22;10195;50.868;4.382;2024-02-26T12:04:12;5.60;99.90
20070;DHT22;10195;50.868;4.382;2024-02-26T12:06:45;5.60;99.90
20070;DHT22;10195;50.868;4.382;2024-02-26T12:09:11;5.70;99.90
20070;DHT22;10195;50.868;4.382;2024-02-26T12:11:39;5.70;99.90
20070;DHT22;10195;50.868;4.382;2024-02-26T12:14:09;5.60;99.90
20070;DHT22;10195;50.868;4.382;2024-02-26T12:16:39;5.60;99.90
20070;DHT22;10195;50.868;4.382;2024-02-26T12:19:08;5.60;99.90
20070;DHT22;10195;50.868;4.382;2024-02-26T12:21:37;5.60;99.90
20070;DHT22;10195;50.868;4.382;2024-02-26T12:24:13;5.60;99.90
20070;DHT22;10195;50.868;4.382;2024-02-26T12:26:39;5.60;99.90
20070;DHT22;10195;50.868;4.382;2024-02-26T12:29:06;5.70;99.90
20070;DHT22;10195;50.868;4.382;2024-02-26T12:31:35;5.80;99.90
20070;DHT22;10195;50.868;4.382;2024-02-26T12:34:04;5.80;99.90
20070;DHT22;10195;50.868;4.382;2024-02-26T12:36:30;5.90;99.90
20070;DHT22;10195;50.868;4.382;2024-02-26T12:38:56;5.90;99.90
20070;DHT22;10195;50.868;4.382;2024-02-26T12:41:22;6.00;99.90
20070;DHT22;10195;50.868;4.382;2024-02-26T12:43:48;5.90;99.90
20070;DHT22;10195;50.868;4.382;2024-02-26T12:46:14;5.80;99.90
20070;DHT22;10195;50.868;4.382;2024-02-26T12:48:44;5.80;99.90
20070;DHT22;10195;50.868;4.382;2024-02-26T12:51:14;5.90;99.90
20070;DHT22;10195;50.868;4.382;2024-02-26T12:53:40;5.90;99.90
20070;DHT22;10195;50.868;4.382;2024-02-26T12:56:08;5.90;99.90
20070;DHT22;10195;50.868;4.382;2024-02-26T12:58:35;6.00;99.90
20070;DHT22;10195;50.868;4.382;2024-02-26T13:01:03;6.00;99.90
20070;DHT22;10195;50.868;4.382;2024-02-26T13:03:30;5.90;99.90
20070;DHT22;10195;50.868;4.382;2024-02-26T13:05:56;5.90;99.90
20070;DHT22;10195;50.868;4.382;2024-02-26T13:08:22;5.80;99.90
20070;DHT22;10195;50.868;4.382;2024-02-26T13:10:48;5.80;99.90
20070;DHT22;10195;50.868;4.382;2024-02-26T13:13:17;5.80;99.90
20070;DHT22;10195;50.868;4.382;2024-02-26T13:15:44;5.70;99.90
20070;DHT22;10195;50.868;4.382;2024-02-26T13:18:14;5.70;99.90
20070;DHT22;10195;50.868;4.382;2024-02-26T13:20:40;5.70;99.90
20070;DHT22;10195;50.868;4.382;2024-02-26T13:23:13;5.70;99.90
20070;DHT22;10195;50.868;4.382;2024-02-26T13:25:39;5.70;99.90
20070;DHT22;10195;50.868;4.382;2024-02-26T13:28:09;5.60;99.90
20070;DHT22;10195;50.868;4.382;2024-02-26T13:30:35;5.50;99.90
20070;DHT22;10195;50.868;4.382;2024-02-26T13:33:12;5.50;99.90
20070;DHT22;10195;50.868;4.382;2024-02-26T13:35:39;5.50;99.90
20070;DHT22;10195;50.868;4.382;2024-02-26T13:38:05;5.50;99.90
20070;DHT22;10195;50.868;4.382;2024-02-26T13:40:32;5.60;99.90
20070;DHT22;10195;50.868;4.382;2024-02-26T13:42:58;5.60;99.90
20070;DHT22;10195;50.868;4.382;2024-02-26T13:45:23;5.60;99.90
20070;DHT22;10195;50.868;4.382;2024-02-26T13:47:49;5.50;99.90
20070;DHT22;10195;50.868;4.382;2024-02-26T13:50:15;5.60;99.90
20070;DHT22;10195;50.868;4.382;2024-02-26T13:52:40;5.60;99.90
20070;DHT22;10195;50.868;4.382;2024-02-26T13:55:06;5.60;99.90
20070;DHT22;10195;50.868;4.382;2024-02-26T13:57:33;5.70;99.90
20070;DHT22;10195;50.868;4.382;2024-02-26T13:59:58;5.70;99.90
20070;DHT22;10195;50.868;4.382;2024-02-26T14:02:24;5.60;99.90
20070;DHT22;10195;50.868;4.382;2024-02-26T14:04:50;5.60;99.90
20070;DHT22;10195;50.868;4.382;2024-02-26T14:07:15;5.70;99.90
20070;DHT22;10195;50.868;4.382;2024-02-26T14:09:43;5.70;99.90
20070;DHT22;10195;50.868;4.382;2024-02-26T14:12:09;5.80;99.90
20070;DHT22;10195;50.868;4.382;2024-02-26T14:14:34;5.90;99.90
20070;DHT22;10195;50.868;4.382;2024-02-26T14:17:04;5.80;99.90
20070;DHT22;10195;50.868;4.382;2024-02-26T14:19:29;5.90;99.90
20070;DHT22;10195;50.868;4.382;2024-02-26T14:21:55;5.90;99.90
20070;DHT22;10195;50.868;4.382;2024-02-26T14:24:20;5.90;99.90
20070;DHT22;10195;50.868;4.382;2024-02-26T14:26:46;5.90;99.90
20070;DHT22;10195;50.868;4.382;2024-02-26T14:29:12;6.00;99.90
20070;DHT22;10195;50.868;4.382;2024-02-26T14:31:38;6.00;99.90
20070;DHT22;10195;50.868;4.382;2024-02-26T14:34:03;6.00;99.90
20070;DHT22;10195;50.868;4.382;2024-02-26T14:36:29;6.00;99.90
20070;DHT22;10195;50.868;4.382;2024-02-26T14:38:55;6.00;99.90
20070;DHT22;10195;50.868;4.382;2024-02-26T14:41:20;6.00;99.90
20070;DHT22;10195;50.868;4.382;2024-02-26T14:43:46;6.00;99.90
20070;DHT22;10195;50.868;4.382;2024-02-26T14:46:12;6.10;99.90
20070;DHT22;10195;50.868;4.382;2024-02-26T14:48:37;6.10;99.90
20070;DHT22;10195;50.868;4.382;2024-02-26T14:51:03;6.00;99.90
20070;DHT22;10195;50.868;4.382;2024-02-26T14:53:32;6.00;99.90
20070;DHT22;10195;50.868;4.382;2024-02-26T14:55:57;6.00;99.90
20070;DHT22;10195;50.868;4.382;2024-02-26T14:58:23;6.00;99.90
20070;DHT22;10195;50.868;4.382;2024-02-26T15:00:49;5.90;99.90
20070;DHT22;10195;50.868;4.382;2024-02-26T15:03:15;5.90;99.90
20070;DHT22;10195;50.868;4.382;2024-02-26T15:05:40;6.00;99.90
20070;DHT22;10195;50.868;4.382;2024-02-26T15:08:06;6.00;99.90
20070;DHT22;10195;50.868;4.382;2024-02-26T15:10:34;6.00;99.90
20070;DHT22;10195;50.868;4.382;2024-02-26T15:13:00;6.10;99.90
20070;DHT22;10195;50.868;4.382;2024-02-26T15:15:25;6.00;99.90
20070;DHT22;10195;50.868;4.382;2024-02-26T15:17:52;6.00;99.90
20070;DHT22;10195;50.868;4.382;2024-02-26T15:20:18;6.00;99.90
20070;DHT22;10195;50.868;4.382;2024-02-26T15:22:43;5.90;99.90
20070;DHT22;10195;50.868;4.382;2024-02-26T15:25:09;6.00;99.90
20070;DHT22;10195;50.868;4.382;2024-02-26T15:27:35;5.90;99.90
20070;DHT22;10195;50.868;4.382;2024-02-26T15:30:01;6.00;99.90
20070;DHT22;10195;50.868;4.382;2024-02-26T15:32:27;5.90;99.90
20070;DHT22;10195;50.868;4.382;2024-02-26T15:34:54;5.90;99.90
20070;DHT22;10195;50.868;4.382;2024-02-26T15:37:20;5.90;99.90
20070;DHT22;10195;50.868;4.382;2024-02-26T15:39:45;5.90;99.90
20070;DHT22;10195;50.868;4.382;2024-02-26T15:42:12;5.90;99.90
20070;DHT22;10195;50.868;4.382;2024-02-26T15:44:38;5.90;99.90